Time;durP1;ratioP1;P1;durP2;ratioP2;P2;SDS_P1;SDS_P2;PMS_P1;PMS_P2;Temp;Humidity;BMP_temperature;BMP_pressure;BME280_temperature;BME280_humidity;BME280_pressure;Samples;Min_cycle;Max_cycle;Signal;HPM_P1;HPM_P2
2023/06/19 00:00:18;;;;;;;5.93;4.53;;;21.70;99.90;;;;;;7402639;19;19919;-67
2023/06/19 00:02:47;;;;;;;6.50;4.90;;;21.50;99.90;;;;;;7402669;19;20355;-67
2023/06/19 00:05:16;;;;;;;7.68;4.95;;;21.60;99.90;;;;;;7401823;19;19946;-67
2023/06/19 00:07:45;;;;;;;5.90;4.35;;;21.40;99.90;;;;;;7402296;19;19930;-67
2023/06/19 00:10:17;;;;;;;6.78;4.95;;;21.50;99.90;;;;;;7402464;19;19960;-67
2023/06/19 00:12:45;;;;;;;;;;;21.60;99.90;;;;;;7405283;19;20355;-67
2023/06/19 00:15:14;;;;;;;;;;;21.60;99.90;;;;;;7403417;19;19915;-67
2023/06/19 00:17:43;;;;;;;6.22;4.47;;;21.40;99.90;;;;;;7402333;19;19962;-67
2023/06/19 00:20:13;;;;;;;5.35;4.57;;;21.50;99.90;;;;;;7401500;19;19922;-67
2023/06/19 00:22:42;;;;;;;7.00;4.60;;;21.40;99.90;;;;;;7400286;19;20363;-68
2023/06/19 00:25:12;;;;;;;9.07;4.43;;;21.50;99.90;;;;;;7402477;19;19943;-67
2023/06/19 00:27:43;;;;;;;5.75;5.13;;;21.50;99.90;;;;;;7403071;19;19929;-68
2023/06/19 00:30:13;;;;;;;5.88;4.18;;;21.40;99.90;;;;;;7404668;19;19978;-67
2023/06/19 00:32:49;;;;;;;7.53;4.78;;;21.50;99.90;;;;;;7408924;19;20586;-67
2023/06/19 00:35:21;;;;;;;4.90;4.32;;;21.50;99.90;;;;;;7409867;19;19915;-67
2023/06/19 00:37:50;;;;;;;5.80;4.68;;;21.40;99.90;;;;;;7409288;19;19930;-67
2023/06/19 00:40:33;;;;;;;5.28;4.45;;;21.30;99.90;;;;;;7408493;19;19932;-67
2023/06/19 00:43:05;;;;;;;5.68;4.53;;;21.50;99.90;;;;;;7407690;19;20276;-66
2023/06/19 00:45:34;;;;;;;4.38;3.97;;;21.30;99.90;;;;;;7407934;19;19943;-67
2023/06/19 00:48:04;;;;;;;6.07;4.85;;;21.40;99.90;;;;;;7408160;19;20657;-67
2023/06/19 00:50:33;;;;;;;5.97;4.22;;;21.60;99.90;;;;;;7408223;19;19929;-67
2023/06/19 00:53:04;;;;;;;7.47;4.82;;;21.50;99.90;;;;;;7407287;19;19982;-67
2023/06/19 00:55:34;;;;;;;4.93;4.18;;;21.70;99.90;;;;;;7407664;19;19922;-67
2023/06/19 00:58:06;;;;;;;5.05;4.55;;;21.60;99.90;;;;;;7407844;19;19991;-67
2023/06/19 01:00:35;;;;;;;9.10;4.60;;;21.70;99.90;;;;;;7407779;19;20362;-67
2023/06/19 01:03:04;;;;;;;6.82;4.78;;;21.50;99.90;;;;;;7407670;19;19941;-67
2023/06/19 01:05:33;;;;;;;5.95;4.60;;;21.50;99.90;;;;;;7406970;19;19939;-68
2023/06/19 01:08:07;;;;;;;5.80;5.18;;;21.50;99.90;;;;;;7407935;19;19935;-67
2023/06/19 01:10:44;;;;;;;5.85;4.30;;;21.60;99.90;;;;;;7408235;19;19970;-67
2023/06/19 01:13:24;;;;;;;5.43;4.90;;;21.60;99.90;;;;;;7407105;19;19919;-67
2023/06/19 01:15:54;;;;;;;8.82;4.97;;;21.40;99.90;;;;;;7406006;19;20668;-67
2023/06/19 01:18:24;;;;;;;5.82;4.82;;;21.60;99.90;;;;;;7406496;19;19919;-67
2023/06/19 01:20:53;;;;;;;5.00;4.50;;;21.40;99.90;;;;;;7407796;19;20322;-67
2023/06/19 01:23:25;;;;;;;5.32;4.60;;;21.50;99.90;;;;;;7406363;19;19923;-67
2023/06/19 01:25:54;;;;;;;6.15;5.00;;;21.50;99.90;;;;;;7406648;19;19925;-67
2023/06/19 01:28:23;;;;;;;6.20;4.60;;;21.40;99.90;;;;;;7406406;19;19922;-67
2023/06/19 01:30:52;;;;;;;7.10;4.82;;;21.40;99.90;;;;;;7406840;19;20313;-67
2023/06/19 01:33:26;;;;;;;7.68;4.35;;;21.30;99.90;;;;;;7405515;19;19978;-67
2023/06/19 01:35:55;;;;;;;5.78;4.70;;;21.40;99.90;;;;;;7407668;19;20009;-67
2023/06/19 01:38:29;;;;;;;5.47;4.40;;;21.40;99.90;;;;;;7405513;19;20291;-67
2023/06/19 01:41:00;;;;;;;7.57;4.60;;;21.40;99.90;;;;;;7407118;19;19970;-67
2023/06/19 01:43:31;;;;;;;5.53;4.90;;;21.40;99.90;;;;;;7405704;19;19917;-67
2023/06/19 01:46:01;;;;;;;7.55;4.68;;;21.30;99.90;;;;;;7406606;19;19923;-67
2023/06/19 01:48:31;;;;;;;6.55;5.00;;;21.40;99.90;;;;;;7406874;19;19918;-68
2023/06/19 01:51:00;;;;;;;6.10;5.00;;;21.20;99.90;;;;;;7406926;19;20620;-67
2023/06/19 01:53:33;;;;;;;7.00;5.43;;;21.40;99.90;;;;;;7405311;19;19915;-66
2023/06/19 01:56:02;;;;;;;8.35;5.68;;;21.50;99.90;;;;;;7406319;19;19926;-66
2023/06/19 01:58:31;;;;;;;6.70;5.32;;;21.30;99.90;;;;;;7406074;19;20481;-66
2023/06/19 02:01:00;;;;;;;7.93;5.85;;;21.40;99.90;;;;;;7406265;19;20374;-66
2023/06/19 02:03:29;;;;;;;7.47;5.25;;;21.30;99.90;;;;;;7405304;19;19932;-67
2023/06/19 02:05:58;;;;;;;7.85;5.22;;;21.10;99.90;;;;;;7406662;19;19914;-67
2023/06/19 02:08:27;;;;;;;8.23;5.47;;;21.30;99.90;;;;;;7405558;19;19939;-67
2023/06/19 02:10:59;;;;;;;8.60;5.50;;;21.30;99.90;;;;;;7404166;19;19967;-67
2023/06/19 02:13:27;;;;;;;;;;;21.30;99.90;;;;;;7408244;19;20018;-66
2023/06/19 02:15:56;;;;;;;6.82;5.88;;;21.20;99.90;;;;;;7407348;19;19985;-67
2023/06/19 02:18:25;;;;;;;8.07;5.93;;;21.10;99.90;;;;;;7405975;19;19970;-68
2023/06/19 02:20:54;;;;;;;9.32;6.28;;;21.10;99.90;;;;;;7405212;19;19914;-67
2023/06/19 02:23:24;;;;;;;7.88;5.53;;;21.20;99.90;;;;;;7404800;19;19981;-67
2023/06/19 02:25:53;;;;;;;8.95;5.97;;;21.30;99.90;;;;;;7404550;19;19926;-67
2023/06/19 02:28:24;;;;;;;6.82;5.65;;;21.20;99.90;;;;;;7403741;19;19974;-67
2023/06/19 02:30:55;;;;;;;7.53;5.97;;;21.20;99.90;;;;;;7402349;19;19934;-67
2023/06/19 02:33:24;;;;;;;8.57;5.32;;;21.10;99.90;;;;;;7403655;19;19978;-67
2023/06/19 02:35:58;;;;;;;10.05;6.18;;;21.10;99.90;;;;;;7404398;19;19988;-67
2023/06/19 02:38:29;;;;;;;9.55;6.57;;;21.20;99.90;;;;;;7402932;19;19982;-67
2023/06/19 02:41:01;;;;;;;6.35;5.40;;;21.10;99.90;;;;;;7401143;19;20327;-67
2023/06/19 02:43:32;;;;;;;8.77;5.78;;;21.10;99.90;;;;;;7403771;19;19986;-67
2023/06/19 02:46:02;;;;;;;7.40;6.15;;;21.20;99.90;;;;;;7402322;19;20348;-67
2023/06/19 02:48:31;;;;;;;8.27;5.93;;;21.20;99.90;;;;;;7401931;19;19986;-67
2023/06/19 02:51:00;;;;;;;8.80;6.03;;;21.10;99.90;;;;;;7400712;19;19990;-67
2023/06/19 02:53:29;;;;;;;8.23;5.97;;;21.00;99.90;;;;;;7402311;19;19982;-67
2023/06/19 02:55:58;;;;;;;8.55;5.07;;;21.20;99.90;;;;;;7403289;19;19926;-67
2023/06/19 02:58:27;;;;;;;6.28;5.47;;;21.10;99.90;;;;;;7403478;19;19932;-67
2023/06/19 03:00:59;;;;;;;6.85;4.85;;;21.10;99.90;;;;;;7399993;19;20292;-67
2023/06/19 03:03:28;;;;;;;6.68;5.28;;;21.00;99.90;;;;;;7402346;19;19926;-67
2023/06/19 03:05:57;;;;;;;6.65;5.03;;;21.10;99.90;;;;;;7401568;19;19922;-67
2023/06/19 03:08:26;;;;;;;6.40;4.72;;;21.10;99.90;;;;;;7402803;19;19915;-67
2023/06/19 03:10:54;;;;;;;6.88;4.97;;;21.10;99.90;;;;;;7401057;19;19942;-67
2023/06/19 03:13:23;;;;;;;7.32;5.43;;;21.00;99.90;;;;;;7401382;19;19956;-68
2023/06/19 03:15:52;;;;;;;7.32;5.07;;;20.90;99.90;;;;;;7404741;19;19932;-67
2023/06/19 03:18:24;;;;;;;6.78;5.20;;;21.00;99.90;;;;;;7404739;19;19996;-68
2023/06/19 03:20:52;;;;;;;;;;;21.10;99.90;;;;;;7407041;19;19926;-67
2023/06/19 03:23:21;;;;;;;7.50;5.28;;;21.00;99.90;;;;;;7401243;19;19958;-67
2023/06/19 03:25:50;;;;;;;6.93;4.88;;;20.90;99.90;;;;;;7403656;19;20278;-67
2023/06/19 03:28:20;;;;;;;7.35;5.07;;;20.90;99.90;;;;;;7403123;19;19926;-67
2023/06/19 03:30:48;;;;;;;8.43;5.32;;;21.00;99.90;;;;;;7404136;19;19934;-67
2023/06/19 03:33:17;;;;;;;7.07;5.22;;;21.00;99.90;;;;;;7402998;19;19990;-67
2023/06/19 03:35:49;;;;;;;9.60;5.30;;;20.90;99.90;;;;;;7402243;19;19931;-67
2023/06/19 03:38:18;;;;;;;6.38;4.82;;;20.90;99.90;;;;;;7403951;19;19922;-67
2023/06/19 03:40:47;;;;;;;8.38;5.53;;;20.70;99.90;;;;;;7400226;19;19942;-67
2023/06/19 03:43:16;;;;;;;7.07;5.65;;;20.90;99.90;;;;;;7403659;19;19907;-67
2023/06/19 03:45:45;;;;;;;6.85;5.20;;;20.80;99.90;;;;;;7403323;19;19935;-67
2023/06/19 03:51:58;;;;;;;8.50;5.72;;;20.80;99.90;;;;;;7389882;19;19934;-67
2023/06/19 03:54:28;;;;;;;6.53;5.20;;;20.70;99.90;;;;;;7391528;19;19918;-66
2023/06/19 03:56:57;;;;;;;6.97;5.05;;;20.60;99.90;;;;;;7398398;19;19926;-66
2023/06/19 03:59:26;;;;;;;8.07;5.82;;;20.60;99.90;;;;;;7400444;19;19974;-66
2023/06/19 04:01:55;;;;;;;7.13;5.68;;;20.60;99.90;;;;;;7399208;19;20018;-67
2023/06/19 04:04:24;;;;;;;7.10;5.38;;;20.40;99.90;;;;;;7398840;19;19947;-67
2023/06/19 04:06:53;;;;;;;6.82;5.38;;;20.40;99.90;;;;;;7403720;19;19922;-67
2023/06/19 04:09:25;;;;;;;5.93;5.18;;;20.50;99.90;;;;;;7405888;19;19933;-67
2023/06/19 04:11:54;;;;;;;7.32;5.38;;;20.60;99.90;;;;;;7405806;19;19918;-67
2023/06/19 04:14:23;;;;;;;8.73;5.75;;;20.60;99.90;;;;;;7403386;19;20362;-67
2023/06/19 04:16:52;;;;;;;9.13;5.72;;;20.40;99.90;;;;;;7404669;19;19974;-66
2023/06/19 04:19:21;;;;;;;8.80;5.88;;;20.50;99.90;;;;;;7403256;19;20533;-66
2023/06/19 04:21:50;;;;;;;9.82;5.40;;;20.40;99.90;;;;;;7403601;19;19943;-66
2023/06/19 04:24:19;;;;;;;7.43;5.93;;;20.70;99.90;;;;;;7403767;19;19938;-67
2023/06/19 04:26:51;;;;;;;8.07;5.68;;;20.50;99.90;;;;;;7405405;19;19926;-67
2023/06/19 04:29:20;;;;;;;7.40;5.18;;;20.60;99.90;;;;;;7404257;19;20359;-67
2023/06/19 04:31:49;;;;;;;7.13;5.07;;;20.40;99.90;;;;;;7406222;19;20024;-67
2023/06/19 04:34:20;;;;;;;7.30;5.55;;;20.50;99.90;;;;;;7404617;19;20366;-67
2023/06/19 04:36:49;;;;;;;6.13;5.22;;;20.70;99.90;;;;;;7403851;19;19926;-67
2023/06/19 04:39:18;;;;;;;7.78;5.07;;;20.60;99.90;;;;;;7407087;19;19922;-68
2023/06/19 04:41:50;;;;;;;8.48;5.25;;;20.10;99.90;;;;;;7404809;19;19943;-67
2023/06/19 04:44:18;;;;;;;;;;;20.70;99.90;;;;;;7409420;19;20334;-67
2023/06/19 04:46:47;;;;;;;6.22;5.05;;;20.70;99.90;;;;;;7407070;19;19923;-67
2023/06/19 04:49:17;;;;;;;7.72;5.15;;;20.70;99.90;;;;;;7403527;19;19938;-67
2023/06/19 04:51:48;;;;;;;6.15;4.97;;;20.80;99.90;;;;;;7404006;19;19923;-67
2023/06/19 04:54:17;;;;;;;7.15;5.00;;;20.70;99.90;;;;;;7402678;19;19918;-67
2023/06/19 04:56:46;;;;;;;7.03;5.35;;;20.60;99.90;;;;;;7404955;19;19950;-67
2023/06/19 04:59:17;;;;;;;7.65;5.60;;;20.50;99.90;;;;;;7406179;19;19945;-68
2023/06/19 05:01:47;;;;;;;6.68;5.22;;;20.70;99.90;;;;;;7400252;19;19919;-68
2023/06/19 05:04:16;;;;;;;10.70;6.00;;;20.60;99.90;;;;;;7405779;19;19942;-68
2023/06/19 05:06:45;;;;;;;8.50;5.93;;;20.40;99.90;;;;;;7407341;19;19935;-67
2023/06/19 05:09:14;;;;;;;7.60;5.68;;;20.60;99.90;;;;;;7405840;19;19922;-67
2023/06/19 05:11:43;;;;;;;7.10;4.90;;;20.40;99.90;;;;;;7405193;19;19922;-67
2023/06/19 05:14:14;;;;;;;8.23;4.97;;;20.50;99.90;;;;;;7403446;19;19922;-67
2023/06/19 05:16:45;;;;;;;8.25;5.20;;;20.60;99.90;;;;;;7404593;19;19970;-67
2023/06/19 05:19:14;;;;;;;7.25;5.90;;;20.60;99.90;;;;;;7405935;19;19926;-67
2023/06/19 05:21:43;;;;;;;8.57;5.18;;;20.50;99.90;;;;;;7396289;19;19922;-67
2023/06/19 05:24:12;;;;;;;7.05;5.10;;;20.40;99.90;;;;;;7400001;19;19918;-67
2023/06/19 05:26:41;;;;;;;7.20;5.32;;;20.60;99.90;;;;;;7399198;19;19927;-67
2023/06/19 05:29:11;;;;;;;8.18;5.13;;;20.80;99.90;;;;;;7402535;19;19942;-67
2023/06/19 05:31:40;;;;;;;6.00;3.92;;;20.80;99.90;;;;;;7399486;19;19919;-70
2023/06/19 05:34:12;;;;;;;6.55;4.00;;;20.80;99.90;;;;;;7308575;19;19922;-67
2023/06/19 05:36:40;;;;;;;;;;;20.90;99.90;;;;;;7404151;19;19918;-67
2023/06/19 05:39:10;;;;;;;6.10;3.25;;;20.70;99.90;;;;;;7404256;19;19919;-67
2023/06/19 05:41:39;;;;;;;4.35;3.53;;;20.80;99.90;;;;;;7402394;19;19923;-67
2023/06/19 05:44:07;;;;;;;6.07;3.25;;;20.90;99.90;;;;;;7404877;19;19951;-68
2023/06/19 05:46:37;;;;;;;5.40;3.42;;;20.70;99.90;;;;;;7403733;19;19990;-68
2023/06/19 05:49:05;;;;;;;5.97;2.90;;;20.90;99.90;;;;;;7404704;19;19929;-67
2023/06/19 05:51:38;;;;;;;4.20;2.83;;;20.70;99.90;;;;;;7402649;19;19985;-68
2023/06/19 05:54:06;;;;;;;;;;;20.70;99.90;;;;;;7407877;19;20266;-67
2023/06/19 05:56:36;;;;;;;4.95;2.72;;;20.70;99.90;;;;;;7405961;19;19926;-68
2023/06/19 05:59:05;;;;;;;5.00;2.88;;;20.70;99.90;;;;;;7403195;19;19922;-71
2023/06/19 06:01:34;;;;;;;4.82;2.55;;;20.70;99.90;;;;;;7405047;19;20343;-68
2023/06/19 06:04:04;;;;;;;5.60;2.60;;;20.80;99.90;;;;;;7404951;19;20612;-67
2023/06/19 06:06:34;;;;;;;4.38;2.90;;;20.70;99.90;;;;;;7408089;19;20658;-68
2023/06/19 06:09:09;;;;;;;3.20;2.28;;;20.70;99.90;;;;;;7405371;19;20025;-67
2023/06/19 06:11:38;;;;;;;3.53;2.60;;;20.80;99.90;;;;;;7405667;19;19926;-68
2023/06/19 06:14:07;;;;;;;4.53;2.15;;;20.80;99.90;;;;;;7403945;19;19926;-75
2023/06/19 06:16:36;;;;;;;7.50;2.58;;;20.80;99.90;;;;;;7405933;19;19922;-77
2023/06/19 06:19:05;;;;;;;3.85;2.72;;;20.80;99.90;;;;;;7405603;19;19937;-77
2023/06/19 06:21:34;;;;;;;3.80;2.85;;;20.80;99.90;;;;;;7403375;19;20458;-78
2023/06/19 06:24:06;;;;;;;6.05;3.05;;;20.80;99.90;;;;;;7403355;19;19933;-67
2023/06/19 06:26:36;;;;;;;4.15;2.80;;;20.80;99.90;;;;;;7404801;19;19925;-67
2023/06/19 06:29:05;;;;;;;3.83;2.95;;;20.70;99.90;;;;;;7404968;19;19936;-67
2023/06/19 06:31:34;;;;;;;4.18;3.00;;;20.90;99.90;;;;;;7406100;19;19918;-68
2023/06/19 06:34:04;;;;;;;4.40;2.70;;;20.70;99.90;;;;;;7405957;19;19930;-67
2023/06/19 06:36:32;;;;;;;3.65;2.75;;;20.70;99.90;;;;;;7404866;19;19962;-67
2023/06/19 06:39:01;;;;;;;5.68;3.10;;;20.90;99.90;;;;;;7406356;19;19910;-67
2023/06/19 06:41:33;;;;;;;5.53;3.30;;;20.80;99.90;;;;;;7403817;19;19942;-67
2023/06/19 06:44:02;;;;;;;;;;;21.00;99.90;;;;;;7408169;19;19928;-68
2023/06/19 06:46:31;;;;;;;5.45;3.10;;;20.90;99.90;;;;;;7405013;19;19918;-67
2023/06/19 06:49:00;;;;;;;4.32;3.28;;;20.80;99.90;;;;;;7405370;19;20344;-67
2023/06/19 06:51:29;;;;;;;4.70;3.05;;;20.80;99.90;;;;;;7403954;19;19998;-67
2023/06/19 06:53:58;;;;;;;4.43;3.20;;;21.00;99.90;;;;;;7403330;19;20043;-67
2023/06/19 06:56:27;;;;;;;4.15;3.38;;;21.10;99.90;;;;;;7404895;19;19927;-68
2023/06/19 06:58:59;;;;;;;3.90;2.88;;;21.20;99.90;;;;;;7405138;19;19934;-67
2023/06/19 07:01:28;;;;;;;;;;;21.10;99.90;;;;;;7405813;19;20493;-67
2023/06/19 07:03:57;;;;;;;3.42;2.58;;;21.30;99.90;;;;;;7405520;19;19919;-67
2023/06/19 07:06:26;;;;;;;3.85;2.38;;;21.20;99.90;;;;;;7404733;19;19939;-67
2023/06/19 07:08:54;;;;;;;3.83;3.42;;;21.10;99.90;;;;;;7404662;19;19922;-67
2023/06/19 07:11:23;;;;;;;4.22;2.60;;;21.20;99.90;;;;;;7405025;19;19918;-67
2023/06/19 07:13:53;;;;;;;3.75;2.40;;;21.10;99.90;;;;;;7403953;19;20259;-68
2023/06/19 07:16:24;;;;;;;8.02;3.60;;;21.10;99.90;;;;;;7404089;19;19918;-67
2023/06/19 07:18:53;;;;;;;;;;;21.20;99.90;;;;;;7407624;19;20277;-67
2023/06/19 07:21:22;;;;;;;3.08;2.20;;;21.20;99.90;;;;;;7403232;19;19981;-67
2023/06/19 07:23:51;;;;;;;3.63;2.80;;;21.50;99.90;;;;;;7402680;19;19942;-68
2023/06/19 07:26:20;;;;;;;4.78;2.65;;;21.00;99.90;;;;;;7403281;19;19942;-68
2023/06/19 07:28:49;;;;;;;3.83;2.35;;;21.00;99.90;;;;;;7404998;19;19974;-67
2023/06/19 07:31:18;;;;;;;2.65;2.40;;;21.00;99.90;;;;;;7404232;19;19948;-67
2023/06/19 07:33:50;;;;;;;5.38;2.70;;;21.00;99.90;;;;;;7403594;19;20234;-67
2023/06/19 07:36:19;;;;;;;3.72;3.00;;;21.10;99.90;;;;;;7404220;19;20269;-67
2023/06/19 07:38:49;;;;;;;4.43;3.13;;;21.10;99.90;;;;;;7402581;19;20651;-67
2023/06/19 07:41:20;;;;;;;5.25;3.50;;;20.90;99.90;;;;;;7403209;19;19932;-68
2023/06/19 07:43:49;;;;;;;4.75;3.58;;;20.90;99.90;;;;;;7402292;19;19922;-67
2023/06/19 07:46:18;;;;;;;5.50;3.88;;;20.80;99.90;;;;;;7404213;19;19994;-67
2023/06/19 07:48:49;;;;;;;4.75;3.80;;;20.00;99.90;;;;;;7402832;19;19927;-67
2023/06/19 07:51:18;;;;;;;;;;;20.80;99.90;;;;;;7406813;19;20290;-67
2023/06/19 07:53:47;;;;;;;5.82;4.03;;;20.60;99.90;;;;;;7404296;19;19943;-67
2023/06/19 07:56:17;;;;;;;5.68;4.00;;;20.50;99.90;;;;;;7404642;19;20362;-66
2023/06/19 07:58:46;;;;;;;8.70;5.43;;;20.50;99.90;;;;;;7403399;19;19910;-67
2023/06/19 08:01:16;;;;;;;7.03;5.72;;;20.50;99.90;;;;;;7402356;19;19917;-67
2023/06/19 08:03:45;;;;;;;8.98;5.72;;;20.40;99.90;;;;;;7402685;19;19917;-67
2023/06/19 08:06:17;;;;;;;8.98;5.35;;;20.40;99.90;;;;;;7402900;19;19933;-67
2023/06/19 08:08:46;;;;;;;;;;;20.40;99.90;;;;;;7405473;19;19955;-67
2023/06/19 08:11:15;;;;;;;8.57;6.13;;;20.50;99.90;;;;;;7401907;19;19919;-67
2023/06/19 08:13:44;;;;;;;9.27;6.53;;;20.30;99.90;;;;;;7402102;19;19919;-67
2023/06/19 08:16:13;;;;;;;8.48;6.20;;;20.40;99.90;;;;;;7402092;19;19925;-67
2023/06/19 08:18:42;;;;;;;9.45;6.35;;;20.40;99.90;;;;;;7401333;19;19922;-67
2023/06/19 08:21:11;;;;;;;9.02;6.03;;;20.50;99.90;;;;;;7401256;19;19921;-67
2023/06/19 08:23:43;;;;;;;8.10;5.50;;;20.60;99.90;;;;;;7400653;19;19990;-66
2023/06/19 08:26:12;;;;;;;7.20;5.30;;;20.70;99.90;;;;;;7401823;19;19919;-67
2023/06/19 08:28:42;;;;;;;8.65;5.72;;;20.60;99.90;;;;;;7401896;19;19915;-67
2023/06/19 08:31:11;;;;;;;6.68;4.97;;;20.80;99.90;;;;;;7402478;19;20411;-67
2023/06/19 08:33:40;;;;;;;7.68;5.07;;;20.50;99.90;;;;;;7402502;19;19915;-67
2023/06/19 08:36:09;;;;;;;7.97;4.55;;;20.50;99.90;;;;;;7401904;19;19914;-67
2023/06/19 08:38:38;;;;;;;7.22;4.43;;;20.30;99.90;;;;;;7401920;19;19939;-67
2023/06/19 08:41:09;;;;;;;5.30;3.88;;;20.30;99.90;;;;;;7401415;19;19928;-67
2023/06/19 08:43:38;;;;;;;;;;;20.30;99.90;;;;;;7402474;19;19915;-67
2023/06/19 08:46:13;;;;;;;8.15;3.97;;;20.40;99.90;;;;;;7402040;19;19926;-68
2023/06/19 08:48:42;;;;;;;4.82;3.40;;;20.50;99.90;;;;;;7402175;19;19919;-67
2023/06/19 08:51:13;;;;;;;7.95;4.03;;;20.30;99.90;;;;;;7404098;19;19911;-67
2023/06/19 08:53:50;;;;;;;4.50;3.33;;;20.30;99.90;;;;;;7407915;19;20372;-67
2023/06/19 08:56:22;;;;;;;;;;;20.40;99.90;;;;;;7410211;19;19918;-67
2023/06/19 08:58:51;;;;;;;4.82;3.10;;;20.30;99.90;;;;;;7408657;19;20240;-67
2023/06/19 09:01:26;;;;;;;5.35;3.30;;;20.40;99.90;;;;;;7406979;19;19978;-67
2023/06/19 09:03:56;;;;;;;5.13;3.10;;;20.30;99.90;;;;;;7407462;19;19981;-67
2023/06/19 09:06:25;;;;;;;5.13;3.05;;;20.30;99.90;;;;;;7409560;19;20378;-67
2023/06/19 09:09:02;;;;;;;5.13;3.67;;;20.50;99.90;;;;;;7407385;19;19922;-69
2023/06/19 09:11:33;;;;;;;3.17;2.58;;;20.40;99.90;;;;;;7407307;19;20339;-67
2023/06/19 09:14:02;;;;;;;;;;;20.40;99.90;;;;;;7409083;19;19974;-67
2023/06/19 09:16:40;;;;;;;5.10;2.83;;;20.20;99.90;;;;;;7407683;19;19941;-67
2023/06/19 09:19:10;;;;;;;3.13;2.47;;;20.30;99.90;;;;;;7408452;19;19935;-67
2023/06/19 09:21:40;;;;;;;4.88;2.88;;;20.30;99.90;;;;;;7406479;19;19918;-67
2023/06/19 09:24:10;;;;;;;2.88;2.60;;;20.40;99.90;;;;;;7405167;19;19980;-67
2023/06/19 09:26:42;;;;;;;3.05;2.15;;;20.40;99.90;;;;;;7405981;19;19926;-67
2023/06/19 09:29:15;;;;;;;;;;;20.40;99.90;;;;;;7408912;19;19926;-69
2023/06/19 09:31:44;;;;;;;5.25;2.88;;;20.50;99.90;;;;;;7407342;19;19923;-69
2023/06/19 09:34:13;;;;;;;6.22;2.80;;;20.30;99.90;;;;;;7405830;19;19986;-69
2023/06/19 09:36:43;;;;;;;4.35;2.70;;;20.30;99.90;;;;;;7407218;19;20386;-70
2023/06/19 09:39:12;;;;;;;6.40;2.90;;;20.10;99.90;;;;;;7408104;19;20403;-69
2023/06/19 09:41:47;;;;;;;5.57;3.00;;;20.10;99.90;;;;;;7406206;19;19997;-69
2023/06/19 09:44:22;;;;;;;3.85;2.35;;;20.10;99.90;;;;;;7407486;19;19925;-69
2023/06/19 09:46:53;;;;;;;5.80;2.90;;;20.20;99.90;;;;;;7407365;19;19974;-69
2023/06/19 09:49:27;;;;;;;4.32;2.72;;;20.00;99.90;;;;;;7406359;19;19935;-69
2023/06/19 09:51:57;;;;;;;5.43;2.78;;;20.10;99.90;;;;;;7406815;19;20439;-69
2023/06/19 09:54:28;;;;;;;7.85;3.33;;;20.00;99.90;;;;;;7405969;19;20365;-70
2023/06/19 09:57:02;;;;;;;5.25;2.88;;;20.00;99.90;;;;;;7406169;19;20359;-70
2023/06/19 09:59:32;;;;;;;5.05;2.85;;;20.10;99.90;;;;;;7405604;19;19930;-69
2023/06/19 10:02:05;;;;;;;6.75;3.08;;;20.10;99.90;;;;;;7405589;19;19990;-70
2023/06/19 10:04:45;;;;;;;4.00;3.00;;;20.00;99.90;;;;;;7407214;19;20260;-70
2023/06/19 10:07:22;;;;;;;5.72;3.35;;;20.20;99.90;;;;;;7406112;19;19919;-69
2023/06/19 10:09:59;;;;;;;5.63;2.65;;;20.20;99.90;;;;;;7405258;19;20011;-69
2023/06/19 10:12:41;;;;;;;4.95;3.30;;;20.50;99.90;;;;;;7404779;19;19938;-70
2023/06/19 10:15:19;;;;;;;3.50;2.70;;;20.70;99.90;;;;;;7399696;19;19982;-69
2023/06/19 10:17:51;;;;;;;5.88;2.97;;;20.40;99.90;;;;;;7395191;19;19919;-69
2023/06/19 10:20:31;;;;;;;4.97;2.65;;;20.80;99.90;;;;;;7400794;19;19926;-69
2023/06/19 10:23:07;;;;;;;4.30;3.47;;;21.10;99.90;;;;;;7387917;19;19918;-69
2023/06/19 10:25:38;;;;;;;6.55;3.30;;;21.10;99.90;;;;;;7401474;19;19944;-69
2023/06/19 10:28:19;;;;;;;4.22;2.90;;;21.10;99.90;;;;;;7400061;19;19992;-70
2023/06/19 10:30:54;;;;;;;4.82;3.33;;;21.10;99.90;;;;;;7402765;19;19919;-70
2023/06/19 10:33:23;;;;;;;4.97;3.63;;;21.20;99.90;;;;;;7401992;19;20344;-69
2023/06/19 10:35:52;;;;;;;13.55;3.67;;;21.00;99.90;;;;;;7396797;19;19922;-69
2023/06/19 10:38:22;;;;;;;6.15;3.97;;;21.20;99.90;;;;;;7394737;19;19919;-69
2023/06/19 10:40:51;;;;;;;4.95;3.67;;;21.10;99.90;;;;;;7398363;19;20263;-69
2023/06/19 10:43:31;;;;;;;8.10;4.13;;;21.20;99.90;;;;;;7399573;19;19925;-70
2023/06/19 10:46:00;;;;;;;9.48;5.63;;;21.20;99.90;;;;;;7399425;19;20418;-68
2023/06/19 10:58:18;;;;;;;6.10;4.40;;;;;;;23.22;51.03;101243.50;7435328;19;20686;-73
2023/06/19 11:00:48;;;;;;;14.23;6.00;;;;;;;22.90;51.56;101238.78;7192434;19;64597;-74
2023/06/19 11:03:32;;;;;;;9.18;4.05;;;;;;;23.83;51.16;101254.22;7435029;19;20706;-73
2023/06/19 11:06:01;;;;;;;7.25;4.28;;;;;;;23.64;51.79;101244.63;7229063;19;19915;-73
2023/06/19 11:08:30;;;;;;;6.07;3.88;;;;;;;23.55;52.66;101248.91;7431171;19;19923;-72
2023/06/19 11:10:59;;;;;;;5.70;3.28;;;;;;;23.41;51.56;101245.63;7433794;19;19955;-72
2023/06/19 11:13:30;;;;;;;5.10;3.45;;;;;;;23.30;51.69;101255.63;7433706;19;19918;-73
2023/06/19 11:15:59;;;;;;;;;;;;;;;23.06;50.45;101259.66;7438348;19;19918;-72
2023/06/19 11:18:28;;;;;;;6.15;3.55;;;;;;;23.08;50.82;101266.56;7435882;19;19919;-74
2023/06/19 11:21:00;;;;;;;5.60;3.50;;;;;;;23.12;50.88;101275.16;7290456;19;98583;-74
2023/06/19 11:23:29;;;;;;;5.47;3.20;;;;;;;23.26;51.62;101275.63;7435151;19;19949;-75
2023/06/19 11:26:05;;;;;;;6.30;3.47;;;;;;;23.36;50.64;101267.56;7431615;19;20006;-74
2023/06/19 11:28:35;;;;;;;5.70;3.25;;;;;;;23.54;51.64;101274.75;7434582;19;19922;-74
2023/06/19 11:31:05;;;;;;;5.85;4.50;;;;;;;23.56;51.70;101286.34;7430098;19;19910;-74
2023/06/19 11:33:34;;;;;;;5.20;3.28;;;;;;;23.58;51.49;101282.22;7434708;19;19929;-75
2023/06/19 11:36:06;;;;;;;4.88;4.00;;;;;;;23.67;51.31;101271.63;7434185;19;19918;-74
2023/06/19 11:38:40;;;;;;;4.97;3.72;;;;;;;23.70;50.72;101276.63;7430844;19;19926;-73
2023/06/19 11:41:09;;;;;;;5.07;4.28;;;;;;;23.73;51.41;101273.38;7436048;19;19939;-74
2023/06/19 11:43:38;;;;;;;5.80;3.95;;;;;;;23.80;51.21;101282.25;7437005;19;19974;-75
2023/06/19 11:46:08;;;;;;;6.75;4.57;;;;;;;23.99;50.02;101278.09;7439778;19;20370;-75
2023/06/19 11:48:40;;;;;;;5.78;4.00;;;;;;;24.09;50.03;101275.50;7438918;19;19918;-76
2023/06/19 11:51:11;;;;;;;6.70;4.15;;;;;;;24.12;50.37;101288.72;7437169;19;19982;-78
2023/06/19 11:53:40;;;;;;;7.80;4.10;;;;;;;24.23;50.25;101284.22;7435706;19;19918;-75
2023/06/19 11:56:09;;;;;;;7.03;4.40;;;;;;;24.31;49.92;101284.59;7439052;19;19918;-76
2023/06/19 11:58:38;;;;;;;6.95;5.07;;;;;;;24.29;49.55;101286.75;7435201;19;19927;-75
2023/06/19 12:01:07;;;;;;;7.45;4.97;;;;;;;24.30;50.05;101277.41;7437718;19;19943;-76
2023/06/19 12:03:35;;;;;;;7.72;5.43;;;;;;;24.39;50.00;101281.38;7433267;19;19941;-74
2023/06/19 12:06:05;;;;;;;8.50;5.28;;;;;;;24.35;50.35;101277.47;7436712;19;19947;-74
2023/06/19 12:08:37;;;;;;;7.32;4.93;;;;;;;24.35;49.77;101305.03;7435788;19;19922;-74
2023/06/19 12:11:08;;;;;;;8.43;5.45;;;;;;;24.23;49.79;101285.06;7437776;19;20245;-75
2023/06/19 12:13:36;;;;;;;8.55;5.03;;;;;;;24.11;50.67;101295.34;7422365;19;19922;-75
2023/06/19 12:16:05;;;;;;;6.68;4.93;;;;;;;24.13;50.18;101282.13;7409636;19;20223;-76
2023/06/19 12:18:34;;;;;;;6.80;5.13;;;;;;;24.16;49.88;101280.84;7408562;19;19922;-75
2023/06/19 12:21:03;;;;;;;6.13;4.70;;;;;;;24.20;50.32;101287.50;7411025;19;19922;-76
2023/06/19 12:23:32;;;;;;;9.05;5.05;;;;;;;24.21;50.03;101280.88;7409978;19;20651;-76
2023/06/19 12:26:04;;;;;;;8.80;5.20;;;;;;;24.26;49.59;101284.53;7413994;19;20185;-76
2023/06/19 12:28:32;;;;;;;6.22;4.43;;;;;;;24.27;50.06;101271.59;7410894;19;19922;-74
2023/06/19 12:31:03;;;;;;;7.10;4.18;;;;;;;24.33;50.10;101282.41;7410859;19;19938;-76
2023/06/19 12:33:32;;;;;;;4.90;4.25;;;;;;;24.51;50.13;101289.50;7410151;19;19978;-75
2023/06/19 12:36:02;;;;;;;5.53;4.63;;;;;;;24.69;49.66;101291.88;7410847;19;19918;-75
2023/06/19 12:38:30;;;;;;;6.20;4.70;;;;;;;24.84;48.74;101296.72;7406599;19;19939;-75
2023/06/19 12:40:59;;;;;;;7.78;5.10;;;;;;;25.00;48.30;101311.50;7411646;19;19918;-75
2023/06/19 12:43:31;;;;;;;6.95;4.72;;;;;;;25.19;47.14;101296.25;7407855;19;19955;-75
2023/06/19 12:46:00;;;;;;;7.35;5.47;;;;;;;25.24;47.28;101288.81;7410572;19;19954;-75
2023/06/19 12:48:29;;;;;;;5.95;4.57;;;;;;;25.10;47.65;101293.16;7408946;19;19974;-74
2023/06/19 12:50:58;;;;;;;9.60;5.80;;;;;;;24.99;48.07;101298.81;7408084;19;19918;-74
2023/06/19 12:53:29;;;;;;;8.52;4.72;;;;;;;24.91;48.25;101311.16;7408496;19;19915;-75
2023/06/19 12:55:59;;;;;;;9.00;4.72;;;;;;;24.90;47.92;101312.25;7409206;19;19925;-75
2023/06/19 12:58:31;;;;;;;8.20;4.90;;;;;;;24.93;48.45;101308.97;7408400;19;19975;-76
2023/06/19 13:00:59;;;;;;;9.27;4.95;;;;;;;24.84;47.87;101321.53;7408763;19;20278;-75
2023/06/19 13:03:28;;;;;;;8.85;5.05;;;;;;;24.81;48.01;101333.06;7407443;19;19910;-75